createdAt,value
2022-08-03T00:00:55.158Z,20.45
2022-08-03T00:06:04.593Z,20.51
2022-08-03T00:11:08.215Z,20.49
2022-08-03T00:16:11.443Z,20.62
2022-08-03T00:21:14.634Z,20.69
2022-08-03T00:26:18.620Z,20.90
2022-08-03T00:31:39.861Z,20.88
2022-08-03T00:36:44.216Z,20.79
2022-08-03T00:41:46.936Z,20.68
2022-08-03T00:46:49.917Z,20.74
2022-08-03T00:51:52.843Z,20.63
2022-08-03T00:56:59.796Z,19.11
2022-08-03T01:02:03.636Z,19.01
2022-08-03T01:07:29.005Z,19.60
2022-08-03T01:12:40.899Z,20.14
2022-08-03T01:18:15.158Z,20.51
2022-08-03T01:23:42.721Z,20.26
2022-08-03T01:29:04.338Z,18.67
2022-08-03T01:34:14.665Z,18.87
2022-08-03T01:39:19.667Z,19.51
2022-08-03T01:44:29.378Z,19.93
2022-08-03T01:49:38.836Z,19.99
2022-08-03T01:54:45.523Z,19.94
2022-08-03T01:59:51.402Z,19.82
2022-08-03T02:04:57.870Z,19.77
2022-08-03T02:10:03.060Z,19.66
2022-08-03T02:15:07.741Z,19.54
2022-08-03T02:20:12.627Z,19.51
2022-08-03T02:25:16.701Z,19.72
2022-08-03T02:30:20.741Z,19.97
2022-08-03T02:35:27.176Z,19.93
2022-08-03T02:40:31.561Z,19.91
2022-08-03T02:45:45.357Z,19.78
2022-08-03T02:50:50.334Z,19.69
2022-08-03T02:55:55.379Z,19.67
2022-08-03T03:00:58.988Z,19.88
2022-08-03T03:06:05.651Z,20.27
2022-08-03T03:11:10.394Z,20.16
2022-08-03T03:16:15.740Z,20.26
2022-08-03T03:21:21.043Z,20.25
2022-08-03T03:26:24.001Z,20.06
2022-08-03T03:31:26.833Z,20.05
2022-08-03T03:36:29.887Z,20.06
2022-08-03T03:41:33.911Z,20.14
2022-08-03T03:46:39.484Z,20.24
2022-08-03T03:51:42.286Z,20.34
2022-08-03T03:56:45.187Z,19.95
2022-08-03T04:01:48.430Z,18.68
2022-08-03T04:07:20.822Z,18.81
2022-08-03T04:12:26.473Z,19.68
2022-08-03T04:17:32.621Z,20.30
2022-08-03T04:22:36.895Z,20.89
2022-08-03T04:27:42.061Z,20.40
2022-08-03T04:32:51.806Z,19.09
2022-08-03T04:37:57.089Z,18.85
2022-08-03T04:43:00.873Z,19.80
2022-08-03T04:48:05.109Z,20.70
2022-08-03T04:53:08.242Z,21.13
2022-08-03T04:58:13.107Z,21.65
2022-08-03T05:03:20.363Z,21.67
2022-08-03T05:08:27.783Z,20.64
2022-08-03T05:13:31.483Z,20.07
2022-08-03T05:18:34.421Z,20.34
2022-08-03T05:23:38.164Z,21.76
2022-08-03T05:28:50.646Z,22.75
2022-08-03T05:33:54.692Z,22.87
2022-08-03T05:39:02.206Z,22.30
2022-08-03T05:44:05.548Z,22.49
2022-08-03T05:49:08.397Z,24.22
2022-08-03T05:54:11.547Z,26.05
2022-08-03T05:59:36.907Z,26.90
2022-08-03T06:04:37.234Z,27.79
2022-08-03T06:10:35.283Z,28.74
2022-08-03T06:15:05.027Z,29.40
2022-08-03T06:20:08.873Z,29.64
2022-08-03T06:25:14.164Z,29.58
2022-08-03T06:30:21.057Z,29.65
2022-08-03T06:35:24.550Z,29.56
2022-08-03T06:40:31.468Z,29.07
2022-08-03T06:45:35.463Z,29.46
2022-08-03T06:50:40.296Z,29.85
2022-08-03T06:55:42.995Z,30.20
2022-08-03T07:00:45.688Z,30.86
2022-08-03T07:05:49.302Z,31.73
2022-08-03T07:10:52.607Z,32.31
2022-08-03T07:15:56.562Z,32.72
2022-08-03T07:20:59.569Z,32.46
2022-08-03T07:26:02.309Z,32.06
2022-08-03T07:31:05.035Z,32.80
2022-08-03T07:36:08.217Z,33.43
2022-08-03T07:41:11.033Z,33.47
2022-08-03T07:46:15.160Z,33.87
2022-08-03T07:51:17.914Z,35.07
2022-08-03T07:56:21.587Z,36.23
2022-08-03T08:01:24.657Z,36.90
2022-08-03T08:06:27.955Z,37.36
2022-08-03T08:11:30.998Z,37.45
2022-08-03T08:16:33.746Z,36.93
2022-08-03T08:21:53.205Z,36.17
2022-08-03T08:27:00.053Z,34.75
2022-08-03T08:32:02.834Z,33.73
2022-08-03T08:37:05.600Z,33.27
2022-08-03T08:42:10.477Z,33.26
2022-08-03T08:47:15.138Z,33.57
2022-08-03T08:52:25.206Z,33.56
2022-08-03T08:57:43.527Z,33.57
2022-08-03T09:02:47.111Z,34.22
2022-08-03T09:07:50.277Z,35.38
2022-08-03T09:12:53.407Z,36.32
2022-08-03T09:17:58.720Z,36.19
2022-08-03T09:23:51.592Z,36.04
2022-08-03T09:28:58.051Z,35.83
2022-08-03T09:34:01.401Z,36.00
2022-08-03T09:39:13.159Z,37.69
2022-08-03T09:44:24.972Z,38.62
2022-08-03T09:49:29.252Z,38.75
2022-08-03T09:54:32.703Z,39.84
2022-08-03T09:59:35.928Z,40.37
2022-08-03T10:04:50.137Z,39.91
2022-08-03T10:10:30.445Z,39.33
2022-08-03T10:16:22.448Z,38.85
2022-08-03T10:21:03.378Z,38.21
2022-08-03T10:26:08.350Z,38.29
2022-08-03T10:31:13.295Z,38.76
2022-08-03T10:36:17.338Z,39.69
2022-08-03T10:41:26.996Z,39.91
2022-08-03T10:46:29.809Z,40.37
2022-08-03T10:51:33.759Z,40.79
2022-08-03T10:56:55.485Z,40.57
2022-08-03T11:02:00.709Z,40.76
2022-08-03T11:07:24.985Z,41.76
2022-08-03T11:12:32.214Z,41.79
2022-08-03T11:17:51.443Z,41.71
2022-08-03T11:23:01.170Z,40.70
2022-08-03T11:28:28.392Z,39.46
2022-08-03T11:33:32.190Z,38.57
2022-08-03T11:38:34.866Z,38.24
2022-08-03T11:43:41.997Z,38.51
2022-08-03T11:48:47.577Z,38.45
2022-08-03T11:54:00.914Z,38.44
2022-08-03T11:59:20.677Z,39.19
2022-08-03T12:04:24.321Z,38.95
2022-08-03T12:09:27.129Z,38.69
2022-08-03T12:14:48.539Z,39.25
2022-08-03T12:19:53.200Z,39.46
2022-08-03T12:24:56.165Z,39.14
2022-08-03T12:30:01.604Z,38.99
2022-08-03T12:35:06.070Z,38.93
2022-08-03T12:40:13.225Z,38.88
2022-08-03T12:45:20.534Z,39.50
2022-08-03T12:50:28.923Z,39.59
2022-08-03T12:55:56.686Z,40.01
2022-08-03T13:00:59.441Z,41.21
2022-08-03T13:06:02.200Z,42.27
2022-08-03T13:11:22.065Z,43.42
2022-08-03T13:16:24.849Z,43.54
2022-08-03T13:21:27.754Z,44.28
2022-08-03T13:26:30.435Z,43.98
2022-08-03T13:31:33.291Z,41.62
2022-08-03T13:37:06.453Z,41.74
2022-08-03T13:41:58.960Z,42.68
2022-08-03T13:47:01.873Z,43.37
2022-08-03T13:52:05.061Z,41.71
2022-08-03T13:58:02.821Z,40.96
2022-08-03T14:02:30.563Z,40.22
2022-08-03T14:07:33.809Z,38.52
2022-08-03T14:12:36.516Z,39.10
2022-08-03T14:17:42.273Z,40.05
2022-08-03T14:22:53.335Z,40.89
2022-08-03T14:27:56.065Z,41.48
2022-08-03T14:33:00.931Z,41.24
2022-08-03T14:38:03.810Z,41.06
2022-08-03T14:43:06.516Z,41.39
2022-08-03T14:49:02.622Z,41.39
2022-08-03T14:53:32.376Z,41.47
2022-08-03T14:58:35.136Z,41.40
2022-08-03T15:03:37.893Z,41.40
2022-08-03T15:08:40.695Z,41.21
2022-08-03T15:13:43.739Z,40.74
2022-08-03T15:18:46.588Z,39.10
2022-08-03T15:23:49.260Z,37.28
2022-08-03T15:28:51.982Z,35.56
2022-08-03T15:33:55.237Z,33.97
2022-08-03T15:38:58.173Z,33.03
2022-08-03T15:44:06.213Z,32.45
2022-08-03T15:49:12.199Z,31.94
2022-08-03T15:54:14.967Z,31.52
2022-08-03T15:59:19.716Z,31.20
2022-08-03T16:04:22.845Z,30.88
2022-08-03T16:09:42.519Z,30.65
2022-08-03T16:14:54.124Z,30.39
2022-08-03T16:19:57.402Z,30.24
2022-08-03T16:25:01.123Z,30.17
2022-08-03T16:30:05.899Z,30.04
2022-08-03T16:35:19.826Z,29.90
2022-08-03T16:40:25.405Z,29.86
2022-08-03T16:45:28.134Z,29.78
2022-08-03T16:50:30.861Z,29.59
2022-08-03T16:55:43.324Z,29.41
2022-08-03T17:00:54.985Z,29.22
2022-08-03T17:06:00.182Z,28.97
2022-08-03T17:11:04.579Z,28.83
2022-08-03T17:16:09.760Z,28.68
2022-08-03T17:21:15.611Z,28.56
2022-08-03T17:26:21.867Z,28.46
2022-08-03T17:31:31.302Z,28.32
2022-08-03T17:37:03.280Z,28.16
2022-08-03T17:42:03.769Z,28.01
2022-08-03T17:47:06.792Z,27.84
2022-08-03T17:52:17.450Z,27.65
2022-08-03T17:58:01.279Z,27.45
2022-08-03T18:03:27.447Z,27.22
2022-08-03T18:08:36.457Z,26.98
2022-08-03T18:13:53.287Z,26.74
2022-08-03T18:19:09.654Z,26.51
2022-08-03T18:24:19.690Z,26.26
2022-08-03T18:29:23.254Z,26.01
2022-08-03T18:34:33.176Z,25.78
2022-08-03T18:39:50.158Z,25.53
2022-08-03T18:44:56.269Z,25.28
2022-08-03T18:50:08.910Z,25.09
2022-08-03T18:55:20.788Z,24.88
2022-08-03T19:00:55.030Z,24.66
2022-08-03T19:06:15.949Z,24.43
2022-08-03T19:12:12.395Z,24.21
2022-08-03T19:17:11.583Z,23.94
2022-08-03T19:22:17.901Z,23.72
2022-08-03T19:27:26.743Z,23.50
2022-08-03T19:32:32.506Z,23.26
2022-08-03T19:37:40.141Z,23.03
2022-08-03T19:42:46.437Z,22.82
2022-08-03T19:47:56.598Z,22.61
2022-08-03T19:53:06.745Z,22.41
2022-08-03T19:58:17.607Z,22.20
2022-08-03T20:03:43.064Z,22.02
2022-08-03T20:08:48.221Z,21.84
2022-08-03T20:13:55.246Z,21.68
2022-08-03T20:18:57.979Z,21.53
2022-08-03T20:24:24.187Z,21.38
2022-08-03T20:30:05.220Z,21.20
2022-08-03T20:34:59.840Z,21.01
2022-08-03T20:40:03.697Z,20.83
2022-08-03T20:45:13.846Z,20.65
2022-08-03T20:50:31.594Z,20.48
2022-08-03T20:55:47.562Z,20.33
2022-08-03T21:00:58.728Z,20.20
2022-08-03T21:06:07.147Z,20.10
2022-08-03T21:11:17.460Z,19.97
2022-08-03T21:16:21.829Z,19.84
2022-08-03T21:21:30.133Z,19.71
2022-08-03T21:26:34.518Z,19.59
2022-08-03T21:31:40.265Z,19.46
2022-08-03T21:36:43.151Z,19.35
2022-08-03T21:41:46.239Z,19.66
2022-08-03T21:46:50.317Z,20.90
2022-08-03T21:51:54.579Z,21.25
2022-08-03T21:57:05.645Z,20.44
2022-08-03T22:02:22.516Z,19.78
2022-08-03T22:07:29.218Z,19.77
2022-08-03T22:12:32.847Z,20.64
2022-08-03T22:17:54.957Z,20.72
2022-08-03T22:23:05.633Z,19.73
2022-08-03T22:28:12.271Z,19.10
2022-08-03T22:33:15.923Z,19.16
2022-08-03T22:38:18.883Z,20.15
2022-08-03T22:43:26.472Z,20.78
2022-08-03T22:48:33.126Z,20.80
2022-08-03T22:53:36.781Z,19.67
2022-08-03T22:58:40.058Z,19.67
2022-08-03T23:04:00.713Z,20.82
2022-08-03T23:09:08.246Z,19.94
2022-08-03T23:14:13.294Z,19.72
2022-08-03T23:19:25.005Z,20.81
2022-08-03T23:24:30.295Z,20.89
2022-08-03T23:29:38.928Z,19.80
2022-08-03T23:35:02.074Z,19.12
2022-08-03T23:40:06.306Z,19.48
2022-08-03T23:45:09.867Z,21.06
2022-08-03T23:50:12.910Z,20.74
2022-08-03T23:55:39.232Z,19.70
